Time,TemperatureF,DewpointF,PressureIn,WindDirection,WindDirectionDegrees,WindSpeedMPH,WindSpeedGustMPH,Humidity,HourlyPrecipIn,Conditions,Clouds,dailyrainin,SoftwareType,DateUTC
2013-08-20 00:04:00,81.3,68.0,29.93,SE,142,5.0,15.0,64,0.00,,,0.00,weatherlink.com 1.10,2013-08-20 05:04:00,
2013-08-20 00:20:00,80.8,69.0,29.93,SE,134,4.0,10.0,67,0.00,,,0.00,weatherlink.com 1.10,2013-08-20 05:20:00,
2013-08-20 00:35:00,80.1,69.0,29.94,ESE,113,2.0,6.0,69,0.00,,,0.00,weatherlink.com 1.10,2013-08-20 05:35:00,
2013-08-20 00:50:00,79.6,69.0,29.94,ESE,114,2.0,5.0,71,0.00,,,0.00,weatherlink.com 1.10,2013-08-20 05:50:00,
2013-08-20 01:05:00,79.0,70.0,29.94,East,101,3.0,5.0,75,0.00,,,0.00,weatherlink.com 1.10,2013-08-20 06:05:00,
2013-08-20 01:20:00,78.6,71.0,29.94,SE,128,1.0,6.0,78,0.00,,,0.00,weatherlink.com 1.10,2013-08-20 06:20:00,
2013-08-20 01:35:00,78.0,71.0,29.94,SSW,207,0.0,3.0,80,0.00,,,0.00,weatherlink.com 1.10,2013-08-20 06:35:00,
2013-08-20 01:50:00,77.3,71.0,29.95,SSE,148,0.0,1.0,81,0.00,,,0.00,weatherlink.com 1.10,2013-08-20 06:50:00,
2013-08-20 02:05:00,76.2,71.0,29.95,SSE,148,0.0,0.0,83,0.00,,,0.00,weatherlink.com 1.10,2013-08-20 07:05:00,
2013-08-20 02:20:00,76.0,71.0,29.94,SE,129,0.0,1.0,85,0.00,,,0.00,weatherlink.com 1.10,2013-08-20 07:20:00,
2013-08-20 02:35:00,75.8,71.0,29.94,SE,131,0.0,2.0,86,0.00,,,0.00,weatherlink.com 1.10,2013-08-20 07:35:00,
2013-08-20 02:50:00,74.8,70.0,29.94,SE,131,0.0,0.0,86,0.00,,,0.00,weatherlink.com 1.10,2013-08-20 07:50:00,
2013-08-20 03:05:00,74.0,70.0,29.94,SE,131,0.0,0.0,87,0.00,,,0.00,weatherlink.com 1.10,2013-08-20 08:05:00,
2013-08-20 03:20:00,73.8,70.0,29.94,SE,131,0.0,0.0,88,0.00,,,0.00,weatherlink.com 1.10,2013-08-20 08:20:00,
2013-08-20 03:35:00,73.7,70.0,29.94,SSE,155,0.0,0.0,89,0.00,,,0.00,weatherlink.com 1.10,2013-08-20 08:35:00,
2013-08-20 03:50:00,73.0,70.0,29.94,SSE,155,0.0,0.0,90,0.00,,,0.00,weatherlink.com 1.10,2013-08-20 08:50:00,
2013-08-20 04:05:00,72.2,69.0,29.94,SSE,155,0.0,0.0,90,0.00,,,0.00,weatherlink.com 1.10,2013-08-20 09:05:00,
2013-08-20 04:20:00,71.7,69.0,29.94,SSE,155,0.0,0.0,91,0.00,,,0.00,weatherlink.com 1.10,2013-08-20 09:20:00,
2013-08-20 04:35:00,71.7,69.0,29.94,SSE,155,0.0,0.0,91,0.00,,,0.00,weatherlink.com 1.10,2013-08-20 09:35:00,
2013-08-20 04:50:00,70.7,68.0,29.94,SSE,155,0.0,0.0,91,0.00,,,0.00,weatherlink.com 1.10,2013-08-20 09:50:00,
2013-08-20 05:05:00,70.5,68.0,29.94,SSE,155,0.0,0.0,92,0.00,,,0.00,weatherlink.com 1.10,2013-08-20 10:05:00,
2013-08-20 05:20:00,70.2,68.0,29.94,SSE,155,0.0,0.0,92,0.00,,,0.00,weatherlink.com 1.10,2013-08-20 10:20:00,
2013-08-20 05:35:00,69.8,68.0,29.94,SSE,155,0.0,0.0,93,0.00,,,0.00,weatherlink.com 1.10,2013-08-20 10:35:00,
2013-08-20 05:50:00,69.5,68.0,29.94,SSE,155,0.0,0.0,94,0.00,,,0.00,weatherlink.com 1.10,2013-08-20 10:50:00,
2013-08-20 06:05:00,70.0,68.0,29.94,SSE,155,0.0,0.0,94,0.00,,,0.00,weatherlink.com 1.10,2013-08-20 11:05:00,
2013-08-20 06:20:00,70.6,69.0,29.94,SSE,155,0.0,0.0,94,0.00,,,0.00,weatherlink.com 1.10,2013-08-20 11:20:00,
2013-08-20 06:35:00,71.1,69.0,29.94,SE,139,0.0,0.0,94,0.00,,,0.00,weatherlink.com 1.10,2013-08-20 11:35:00,
2013-08-20 06:50:00,70.8,69.0,29.94,ESE,105,0.0,0.0,93,0.00,,,0.00,weatherlink.com 1.10,2013-08-20 11:50:00,
2013-08-20 07:05:00,70.3,68.0,29.94,ESE,105,0.0,0.0,93,0.00,,,0.00,weatherlink.com 1.10,2013-08-20 12:05:00,
2013-08-20 07:20:00,70.5,68.0,29.94,ESE,105,0.0,0.0,93,0.00,,,0.00,weatherlink.com 1.10,2013-08-20 12:20:00,
2013-08-20 07:35:00,71.4,69.0,29.95,ESE,104,0.0,0.0,93,0.00,,,0.00,weatherlink.com 1.10,2013-08-20 12:35:00,
2013-08-20 07:50:00,73.5,71.0,29.96,ESE,105,0.0,0.0,92,0.00,,,0.00,weatherlink.com 1.10,2013-08-20 12:50:00,
2013-08-20 08:05:00,74.8,71.0,29.96,East,83,1.0,2.0,88,0.00,,,0.00,weatherlink.com 1.10,2013-08-20 13:05:00,
2013-08-20 08:20:00,75.7,71.0,29.96,ENE,77,2.0,3.0,85,0.00,,,0.00,weatherlink.com 1.10,2013-08-20 13:20:00,
2013-08-20 08:36:00,75.3,71.0,29.97,NE,48,5.0,5.0,87,0.00,,,0.00,weatherlink.com 1.10,2013-08-20 13:36:00,
2013-08-20 08:51:00,76.4,72.0,29.97,East,81,2.0,4.0,86,0.00,,,0.00,weatherlink.com 1.10,2013-08-20 13:51:00,
2013-08-20 09:07:00,78.5,73.0,29.97,ENE,60,6.0,6.0,82,0.00,,,0.00,weatherlink.com 1.10,2013-08-20 14:07:00,
2013-08-20 09:21:00,80.1,73.0,29.96,NE,39,5.0,6.0,79,0.00,,,0.00,weatherlink.com 1.10,2013-08-20 14:21:00,
2013-08-20 09:36:00,81.0,74.0,29.98,ESE,103,5.0,7.0,78,0.00,,,0.00,weatherlink.com 1.10,2013-08-20 14:36:00,
2013-08-20 09:51:00,81.2,73.0,29.98,North,6,4.0,8.0,77,0.00,,,0.00,weatherlink.com 1.10,2013-08-20 14:51:00,
2013-08-20 10:06:00,82.2,74.0,29.98,NNE,20,5.0,8.0,75,0.00,,,0.00,weatherlink.com 1.10,2013-08-20 15:06:00,
2013-08-20 10:21:00,83.1,73.0,29.98,East,79,5.0,9.0,72,0.00,,,0.00,weatherlink.com 1.10,2013-08-20 15:21:00,
2013-08-20 10:36:00,83.8,73.0,29.98,NE,42,3.0,10.0,69,0.00,,,0.00,weatherlink.com 1.10,2013-08-20 15:36:00,
2013-08-20 10:51:00,84.9,72.0,29.98,NE,51,8.0,11.0,65,0.00,,,0.00,weatherlink.com 1.10,2013-08-20 15:51:00,
2013-08-20 11:06:00,86.0,72.0,29.98,ENE,60,8.0,11.0,64,0.00,,,0.00,weatherlink.com 1.10,2013-08-20 16:06:00,
2013-08-20 11:21:00,86.4,71.0,29.98,ENE,64,3.0,9.0,61,0.00,,,0.00,weatherlink.com 1.10,2013-08-20 16:21:00,
2013-08-20 11:36:00,87.1,70.0,29.97,East,79,5.0,11.0,58,0.00,,,0.00,weatherlink.com 1.10,2013-08-20 16:36:00,
2013-08-20 11:51:00,88.4,70.0,29.97,East,79,8.0,13.0,54,0.00,,,0.00,weatherlink.com 1.10,2013-08-20 16:51:00,
2013-08-20 12:06:00,88.9,70.0,29.97,ENE,70,2.0,10.0,53,0.00,,,0.00,weatherlink.com 1.10,2013-08-20 17:06:00,
2013-08-20 12:21:00,89.0,69.0,29.96,East,93,9.0,13.0,51,0.00,,,0.00,weatherlink.com 1.10,2013-08-20 17:21:00,
2013-08-20 12:36:00,88.7,67.0,29.96,ENE,65,10.0,11.0,48,0.00,,,0.00,weatherlink.com 1.10,2013-08-20 17:36:00,
2013-08-20 12:51:00,89.3,67.0,29.96,ENE,64,8.0,11.0,48,0.00,,,0.00,weatherlink.com 1.10,2013-08-20 17:51:00,
2013-08-20 13:06:00,90.0,68.0,29.95,ENE,58,13.0,14.0,48,0.00,,,0.00,weatherlink.com 1.10,2013-08-20 18:06:00,
2013-08-20 13:21:00,91.3,65.0,29.95,ENE,72,7.0,12.0,42,0.00,,,0.00,weatherlink.com 1.10,2013-08-20 18:21:00,
2013-08-20 13:36:00,92.4,67.0,29.95,NE,54,4.0,12.0,43,0.00,,,0.00,weatherlink.com 1.10,2013-08-20 18:36:00,
2013-08-20 13:51:00,94.1,66.0,29.94,East,88,8.0,11.0,40,0.00,,,0.00,weatherlink.com 1.10,2013-08-20 18:51:00,
2013-08-20 14:06:00,92.8,67.0,29.94,ENE,78,8.0,18.0,43,0.00,,,0.00,weatherlink.com 1.10,2013-08-20 19:06:00,
2013-08-20 14:21:00,92.0,67.0,29.94,SE,131,6.0,11.0,44,0.00,,,0.00,weatherlink.com 1.10,2013-08-20 19:21:00,
2013-08-20 14:36:00,90.7,68.0,29.93,NE,53,13.0,14.0,48,0.00,,,0.00,weatherlink.com 1.10,2013-08-20 19:36:00,
2013-08-20 14:51:00,89.5,72.0,29.93,SE,136,6.0,15.0,56,0.00,,,0.00,weatherlink.com 1.10,2013-08-20 19:51:00,
2013-08-20 15:06:00,89.2,71.0,29.93,SE,134,5.0,14.0,56,0.00,,,0.00,weatherlink.com 1.10,2013-08-20 20:06:00,
2013-08-20 15:21:00,88.6,71.0,29.92,East,82,7.0,15.0,56,0.00,,,0.00,weatherlink.com 1.10,2013-08-20 20:21:00,
2013-08-20 15:36:00,88.2,72.0,29.92,ESE,109,6.0,13.0,58,0.00,,,0.00,weatherlink.com 1.10,2013-08-20 20:36:00,
2013-08-20 15:51:00,87.1,72.0,29.92,ENE,78,11.0,15.0,62,0.00,,,0.00,weatherlink.com 1.10,2013-08-20 20:51:00,
2013-08-20 16:06:00,86.9,72.0,29.92,SSE,153,8.0,12.0,62,0.00,,,0.00,weatherlink.com 1.10,2013-08-20 21:06:00,
2013-08-20 16:21:00,86.9,72.0,29.92,East,98,4.0,12.0,61,0.00,,,0.00,weatherlink.com 1.10,2013-08-20 21:21:00,
2013-08-20 16:37:00,86.9,72.0,29.91,SSE,160,6.0,11.0,62,0.00,,,0.00,weatherlink.com 1.10,2013-08-20 21:37:00,
2013-08-20 16:52:00,87.5,72.0,29.91,East,97,11.0,13.0,61,0.00,,,0.00,weatherlink.com 1.10,2013-08-20 21:52:00,
2013-08-20 17:07:00,87.7,72.0,29.91,SE,128,8.0,12.0,60,0.00,,,0.00,weatherlink.com 1.10,2013-08-20 22:07:00,
2013-08-20 17:22:00,88.8,72.0,29.91,South,187,4.0,12.0,57,0.00,,,0.00,weatherlink.com 1.10,2013-08-20 22:22:00,
2013-08-20 17:37:00,89.2,71.0,29.91,ESE,120,10.0,12.0,55,0.00,,,0.00,weatherlink.com 1.10,2013-08-20 22:37:00,
2013-08-20 17:52:00,88.8,71.0,29.91,ESE,106,11.0,11.0,55,0.00,,,0.00,weatherlink.com 1.10,2013-08-20 22:52:00,
2013-08-20 18:07:00,88.2,71.0,29.91,ENE,67,6.0,12.0,56,0.00,,,0.00,weatherlink.com 1.10,2013-08-20 23:07:00,
2013-08-20 18:22:00,88.0,71.0,29.91,East,91,6.0,12.0,57,0.00,,,0.00,weatherlink.com 1.10,2013-08-20 23:22:00,
2013-08-20 18:37:00,87.7,71.0,29.91,SE,125,7.0,9.0,58,0.00,,,0.00,weatherlink.com 1.10,2013-08-20 23:37:00,
2013-08-20 18:52:00,86.6,72.0,29.91,ESE,117,5.0,11.0,61,0.00,,,0.00,weatherlink.com 1.10,2013-08-20 23:52:00,
2013-08-20 19:07:00,85.8,72.0,29.91,SE,132,8.0,13.0,63,0.00,,,0.00,weatherlink.com 1.10,2013-08-21 00:07:00,
2013-08-20 19:22:00,85.2,72.0,29.91,SE,132,5.0,11.0,64,0.00,,,0.00,weatherlink.com 1.10,2013-08-21 00:22:00,
2013-08-20 19:37:00,84.0,71.0,29.92,SE,145,5.0,10.0,66,0.00,,,0.00,weatherlink.com 1.10,2013-08-21 00:37:00,
2013-08-20 19:52:00,83.0,70.0,29.92,SE,129,6.0,10.0,66,0.00,,,0.00,weatherlink.com 1.10,2013-08-21 00:52:00,
2013-08-20 20:07:00,82.1,71.0,29.92,ESE,110,6.0,9.0,68,0.00,,,0.00,weatherlink.com 1.10,2013-08-21 01:07:00,
2013-08-20 20:22:00,81.6,71.0,29.92,SE,124,6.0,7.0,69,0.00,,,0.00,weatherlink.com 1.10,2013-08-21 01:22:00,
2013-08-20 20:37:00,81.1,70.0,29.92,East,88,3.0,6.0,70,0.00,,,0.00,weatherlink.com 1.10,2013-08-21 01:37:00,
2013-08-20 20:52:00,80.6,70.0,29.93,ESE,120,5.0,7.0,71,0.00,,,0.00,weatherlink.com 1.10,2013-08-21 01:52:00,
2013-08-20 21:07:00,80.2,70.0,29.93,SE,126,2.0,6.0,72,0.00,,,0.00,weatherlink.com 1.10,2013-08-21 02:07:00,
2013-08-20 21:22:00,79.6,70.0,29.94,ESE,112,1.0,6.0,73,0.00,,,0.00,weatherlink.com 1.10,2013-08-21 02:22:00,
2013-08-20 21:37:00,79.2,70.0,29.95,SSE,148,2.0,4.0,74,0.00,,,0.00,weatherlink.com 1.10,2013-08-21 02:37:00,
2013-08-20 21:52:00,78.7,70.0,29.95,SE,124,1.0,4.0,75,0.00,,,0.00,weatherlink.com 1.10,2013-08-21 02:52:00,
2013-08-20 22:07:00,78.3,70.0,29.96,SE,131,1.0,5.0,76,0.00,,,0.00,weatherlink.com 1.10,2013-08-21 03:07:00,
2013-08-20 22:22:00,77.8,70.0,29.96,ESE,120,0.0,5.0,77,0.00,,,0.00,weatherlink.com 1.10,2013-08-21 03:22:00,
2013-08-20 22:37:00,77.3,70.0,29.97,SE,132,1.0,4.0,78,0.00,,,0.00,weatherlink.com 1.10,2013-08-21 03:37:00,
2013-08-20 22:52:00,76.7,70.0,29.97,ESE,109,1.0,2.0,79,0.00,,,0.00,weatherlink.com 1.10,2013-08-21 03:52:00,
2013-08-20 23:07:00,76.2,70.0,29.97,ESE,105,1.0,3.0,80,0.00,,,0.00,weatherlink.com 1.10,2013-08-21 04:07:00,
2013-08-20 23:22:00,76.2,69.0,29.98,SE,124,1.0,5.0,79,0.00,,,0.00,weatherlink.com 1.10,2013-08-21 04:22:00,
2013-08-20 23:37:00,76.1,69.0,29.98,SE,136,2.0,4.0,79,0.00,,,0.00,weatherlink.com 1.10,2013-08-21 04:37:00,
2013-08-20 23:52:00,75.7,69.0,29.99,SE,135,0.0,2.0,80,0.00,,,0.00,weatherlink.com 1.10,2013-08-21 04:52:00,